sensor_id;sensor_type;location;lat;lon;timestamp;P1;durP1;ratioP1;P2;durP2;ratioP2
27580;SDS011;63557;52.302;7.964;2023-04-03T00:04:39;12.60;;;3.58;;
27580;SDS011;63557;52.302;7.964;2023-04-03T00:09:41;18.60;;;3.95;;
27580;SDS011;63557;52.302;7.964;2023-04-03T00:14:41;14.13;;;3.22;;
27580;SDS011;63557;52.302;7.964;2023-04-03T00:19:41;10.20;;;3.23;;
27580;SDS011;63557;52.302;7.964;2023-04-03T00:24:42;8.98;;;3.30;;
27580;SDS011;63557;52.302;7.964;2023-04-03T00:29:42;9.32;;;2.88;;
27580;SDS011;63557;52.302;7.964;2023-04-03T00:34:43;6.30;;;3.05;;
27580;SDS011;63557;52.302;7.964;2023-04-03T00:39:43;8.68;;;3.65;;
27580;SDS011;63557;52.302;7.964;2023-04-03T00:49:44;9.35;;;3.13;;
27580;SDS011;63557;52.302;7.964;2023-04-03T00:54:45;6.88;;;2.45;;
27580;SDS011;63557;52.302;7.964;2023-04-03T00:59:49;9.20;;;2.80;;
27580;SDS011;63557;52.302;7.964;2023-04-03T01:04:50;7.43;;;2.75;;
27580;SDS011;63557;52.302;7.964;2023-04-03T01:09:51;8.77;;;2.85;;
27580;SDS011;63557;52.302;7.964;2023-04-03T01:14:54;12.48;;;3.00;;
27580;SDS011;63557;52.302;7.964;2023-04-03T01:25:14;13.98;;;3.30;;
27580;SDS011;63557;52.302;7.964;2023-04-03T01:30:16;8.30;;;2.72;;
27580;SDS011;63557;52.302;7.964;2023-04-03T01:35:17;10.05;;;3.13;;
27580;SDS011;63557;52.302;7.964;2023-04-03T01:40:18;6.43;;;2.70;;
27580;SDS011;63557;52.302;7.964;2023-04-03T01:45:20;12.75;;;2.53;;
27580;SDS011;63557;52.302;7.964;2023-04-03T01:50:20;7.60;;;2.28;;
27580;SDS011;63557;52.302;7.964;2023-04-03T01:55:21;12.98;;;3.20;;
27580;SDS011;63557;52.302;7.964;2023-04-03T02:00:22;11.05;;;2.92;;
27580;SDS011;63557;52.302;7.964;2023-04-03T02:05:23;6.95;;;2.75;;
27580;SDS011;63557;52.302;7.964;2023-04-03T02:10:24;6.97;;;2.50;;
27580;SDS011;63557;52.302;7.964;2023-04-03T02:15:25;12.93;;;2.75;;
27580;SDS011;63557;52.302;7.964;2023-04-03T02:20:25;5.97;;;2.40;;
27580;SDS011;63557;52.302;7.964;2023-04-03T02:25:26;7.78;;;2.78;;
27580;SDS011;63557;52.302;7.964;2023-04-03T02:30:26;7.28;;;2.88;;
27580;SDS011;63557;52.302;7.964;2023-04-03T02:35:26;12.88;;;3.40;;
27580;SDS011;63557;52.302;7.964;2023-04-03T02:40:29;7.72;;;2.95;;
27580;SDS011;63557;52.302;7.964;2023-04-03T02:45:30;8.53;;;2.23;;
27580;SDS011;63557;52.302;7.964;2023-04-03T02:50:30;6.43;;;2.45;;
27580;SDS011;63557;52.302;7.964;2023-04-03T02:55:30;8.10;;;2.78;;
27580;SDS011;63557;52.302;7.964;2023-04-03T03:00:31;7.40;;;2.60;;
27580;SDS011;63557;52.302;7.964;2023-04-03T03:05:32;6.38;;;2.72;;
27580;SDS011;63557;52.302;7.964;2023-04-03T03:10:32;14.75;;;3.63;;
27580;SDS011;63557;52.302;7.964;2023-04-03T03:15:33;11.13;;;2.97;;
27580;SDS011;63557;52.302;7.964;2023-04-03T03:20:33;8.55;;;2.58;;
27580;SDS011;63557;52.302;7.964;2023-04-03T03:25:37;9.37;;;2.47;;
27580;SDS011;63557;52.302;7.964;2023-04-03T03:30:37;8.55;;;2.55;;
27580;SDS011;63557;52.302;7.964;2023-04-03T03:35:37;12.55;;;3.13;;
27580;SDS011;63557;52.302;7.964;2023-04-03T03:40:38;17.13;;;3.38;;
27580;SDS011;63557;52.302;7.964;2023-04-03T03:45:39;12.48;;;2.85;;
27580;SDS011;63557;52.302;7.964;2023-04-03T03:50:39;9.85;;;2.65;;
27580;SDS011;63557;52.302;7.964;2023-04-03T03:55:40;9.70;;;2.83;;
27580;SDS011;63557;52.302;7.964;2023-04-03T04:00:41;7.80;;;3.00;;
27580;SDS011;63557;52.302;7.964;2023-04-03T04:05:42;9.25;;;2.95;;
27580;SDS011;63557;52.302;7.964;2023-04-03T04:10:43;5.28;;;3.00;;
27580;SDS011;63557;52.302;7.964;2023-04-03T04:15:45;6.45;;;3.17;;
27580;SDS011;63557;52.302;7.964;2023-04-03T04:20:47;12.80;;;3.70;;
27580;SDS011;63557;52.302;7.964;2023-04-03T04:25:49;10.13;;;3.00;;
27580;SDS011;63557;52.302;7.964;2023-04-03T04:30:49;9.63;;;4.07;;
27580;SDS011;63557;52.302;7.964;2023-04-03T04:35:51;16.35;;;4.38;;
27580;SDS011;63557;52.302;7.964;2023-04-03T04:40:54;12.25;;;3.33;;
27580;SDS011;63557;52.302;7.964;2023-04-03T04:46:02;8.82;;;3.45;;
27580;SDS011;63557;52.302;7.964;2023-04-03T04:51:05;12.80;;;3.53;;
27580;SDS011;63557;52.302;7.964;2023-04-03T04:56:06;12.45;;;3.28;;
27580;SDS011;63557;52.302;7.964;2023-04-03T05:01:08;11.48;;;3.38;;
27580;SDS011;63557;52.302;7.964;2023-04-03T05:06:16;8.90;;;2.63;;
27580;SDS011;63557;52.302;7.964;2023-04-03T05:11:16;8.05;;;2.95;;
27580;SDS011;63557;52.302;7.964;2023-04-03T05:16:18;9.30;;;3.17;;
27580;SDS011;63557;52.302;7.964;2023-04-03T05:21:18;6.72;;;3.75;;
27580;SDS011;63557;52.302;7.964;2023-04-03T05:26:20;12.88;;;4.63;;
27580;SDS011;63557;52.302;7.964;2023-04-03T05:31:23;12.77;;;4.18;;
27580;SDS011;63557;52.302;7.964;2023-04-03T05:36:23;7.25;;;3.58;;
27580;SDS011;63557;52.302;7.964;2023-04-03T05:41:29;7.07;;;3.17;;
27580;SDS011;63557;52.302;7.964;2023-04-03T05:46:30;14.07;;;2.92;;
27580;SDS011;63557;52.302;7.964;2023-04-03T05:51:34;6.50;;;3.08;;
27580;SDS011;63557;52.302;7.964;2023-04-03T05:56:40;8.98;;;3.75;;
27580;SDS011;63557;52.302;7.964;2023-04-03T06:01:41;14.60;;;4.00;;
27580;SDS011;63557;52.302;7.964;2023-04-03T06:06:49;17.58;;;3.40;;
27580;SDS011;63557;52.302;7.964;2023-04-03T06:11:52;11.27;;;3.20;;
27580;SDS011;63557;52.302;7.964;2023-04-03T06:16:53;11.88;;;3.72;;
27580;SDS011;63557;52.302;7.964;2023-04-03T06:21:54;14.00;;;4.28;;
27580;SDS011;63557;52.302;7.964;2023-04-03T06:26:55;7.18;;;2.97;;
27580;SDS011;63557;52.302;7.964;2023-04-03T06:31:55;8.45;;;2.92;;
27580;SDS011;63557;52.302;7.964;2023-04-03T06:36:55;7.07;;;3.17;;
27580;SDS011;63557;52.302;7.964;2023-04-03T06:41:56;8.95;;;2.85;;
27580;SDS011;63557;52.302;7.964;2023-04-03T06:47:04;11.20;;;3.22;;
27580;SDS011;63557;52.302;7.964;2023-04-03T06:52:04;12.30;;;3.08;;
27580;SDS011;63557;52.302;7.964;2023-04-03T06:57:05;9.95;;;3.60;;
27580;SDS011;63557;52.302;7.964;2023-04-03T07:02:05;6.18;;;2.40;;
27580;SDS011;63557;52.302;7.964;2023-04-03T07:07:06;16.03;;;3.67;;
27580;SDS011;63557;52.302;7.964;2023-04-03T07:12:06;10.93;;;3.72;;
27580;SDS011;63557;52.302;7.964;2023-04-03T07:17:07;10.85;;;2.95;;
27580;SDS011;63557;52.302;7.964;2023-04-03T07:22:07;7.43;;;2.97;;
27580;SDS011;63557;52.302;7.964;2023-04-03T07:27:08;9.10;;;3.00;;
27580;SDS011;63557;52.302;7.964;2023-04-03T07:32:08;7.47;;;2.95;;
27580;SDS011;63557;52.302;7.964;2023-04-03T07:37:10;12.32;;;2.95;;
27580;SDS011;63557;52.302;7.964;2023-04-03T07:42:10;8.60;;;2.97;;
27580;SDS011;63557;52.302;7.964;2023-04-03T07:47:12;6.07;;;2.47;;
27580;SDS011;63557;52.302;7.964;2023-04-03T07:52:14;4.97;;;2.65;;
27580;SDS011;63557;52.302;7.964;2023-04-03T07:57:15;4.80;;;2.45;;
27580;SDS011;63557;52.302;7.964;2023-04-03T08:02:16;9.07;;;2.70;;
27580;SDS011;63557;52.302;7.964;2023-04-03T08:07:16;8.50;;;3.07;;
27580;SDS011;63557;52.302;7.964;2023-04-03T08:12:17;7.13;;;2.40;;
27580;SDS011;63557;52.302;7.964;2023-04-03T08:17:18;5.05;;;2.33;;
27580;SDS011;63557;52.302;7.964;2023-04-03T08:22:18;9.90;;;3.03;;
27580;SDS011;63557;52.302;7.964;2023-04-03T08:27:19;6.60;;;2.17;;
27580;SDS011;63557;52.302;7.964;2023-04-03T08:32:19;8.00;;;2.60;;
27580;SDS011;63557;52.302;7.964;2023-04-03T08:37:20;4.60;;;2.23;;
27580;SDS011;63557;52.302;7.964;2023-04-03T08:52:35;8.93;;;2.80;;
27580;SDS011;63557;52.302;7.964;2023-04-03T08:57:39;8.07;;;2.45;;
27580;SDS011;63557;52.302;7.964;2023-04-03T09:02:41;6.78;;;2.15;;
27580;SDS011;63557;52.302;7.964;2023-04-03T09:07:47;7.47;;;2.35;;
27580;SDS011;63557;52.302;7.964;2023-04-03T09:12:52;6.65;;;2.15;;
27580;SDS011;63557;52.302;7.964;2023-04-03T09:22:56;4.68;;;1.85;;
27580;SDS011;63557;52.302;7.964;2023-04-03T09:27:57;8.52;;;1.95;;
27580;SDS011;63557;52.302;7.964;2023-04-03T09:32:58;3.58;;;2.05;;
27580;SDS011;63557;52.302;7.964;2023-04-03T09:38:14;7.93;;;1.92;;
27580;SDS011;63557;52.302;7.964;2023-04-03T09:48:22;6.25;;;2.10;;
27580;SDS011;63557;52.302;7.964;2023-04-03T09:58:31;4.65;;;2.20;;
27580;SDS011;63557;52.302;7.964;2023-04-03T10:03:34;5.57;;;1.75;;
27580;SDS011;63557;52.302;7.964;2023-04-03T10:08:35;6.25;;;1.98;;
27580;SDS011;63557;52.302;7.964;2023-04-03T10:13:36;6.93;;;2.40;;
27580;SDS011;63557;52.302;7.964;2023-04-03T10:18:44;5.77;;;2.00;;
27580;SDS011;63557;52.302;7.964;2023-04-03T10:23:47;6.75;;;1.90;;
27580;SDS011;63557;52.302;7.964;2023-04-03T10:34:06;8.48;;;2.30;;
27580;SDS011;63557;52.302;7.964;2023-04-03T10:54:59;4.65;;;1.65;;
27580;SDS011;63557;52.302;7.964;2023-04-03T11:00:03;8.23;;;2.30;;
27580;SDS011;63557;52.302;7.964;2023-04-03T11:05:06;3.67;;;1.90;;
27580;SDS011;63557;52.302;7.964;2023-04-03T11:10:15;6.70;;;1.60;;
27580;SDS011;63557;52.302;7.964;2023-04-03T11:15:19;8.45;;;2.20;;
27580;SDS011;63557;52.302;7.964;2023-04-03T11:25:21;5.43;;;2.15;;
27580;SDS011;63557;52.302;7.964;2023-04-03T11:30:25;6.10;;;2.88;;
27580;SDS011;63557;52.302;7.964;2023-04-03T11:35:27;6.45;;;1.88;;
27580;SDS011;63557;52.302;7.964;2023-04-03T11:40:29;5.38;;;2.08;;
27580;SDS011;63557;52.302;7.964;2023-04-03T11:45:52;4.35;;;1.65;;
27580;SDS011;63557;52.302;7.964;2023-04-03T11:50:55;3.40;;;2.08;;
27580;SDS011;63557;52.302;7.964;2023-04-03T11:55:59;7.53;;;2.70;;
27580;SDS011;63557;52.302;7.964;2023-04-03T12:01:01;3.90;;;1.95;;
27580;SDS011;63557;52.302;7.964;2023-04-03T12:16:46;3.28;;;1.77;;
27580;SDS011;63557;52.302;7.964;2023-04-03T12:37:07;4.00;;;2.00;;
27580;SDS011;63557;52.302;7.964;2023-04-03T12:47:29;8.82;;;2.03;;
27580;SDS011;63557;52.302;7.964;2023-04-03T12:52:35;3.15;;;1.70;;
27580;SDS011;63557;52.302;7.964;2023-04-03T12:57:37;6.22;;;1.83;;
27580;SDS011;63557;52.302;7.964;2023-04-03T13:02:37;7.57;;;2.00;;
27580;SDS011;63557;52.302;7.964;2023-04-03T13:07:37;5.00;;;1.80;;
27580;SDS011;63557;52.302;7.964;2023-04-03T13:12:48;5.15;;;1.77;;
27580;SDS011;63557;52.302;7.964;2023-04-03T13:17:49;11.18;;;2.28;;
27580;SDS011;63557;52.302;7.964;2023-04-03T13:27:51;2.97;;;1.50;;
27580;SDS011;63557;52.302;7.964;2023-04-03T13:32:53;6.47;;;2.00;;
27580;SDS011;63557;52.302;7.964;2023-04-03T13:37:54;5.35;;;1.60;;
27580;SDS011;63557;52.302;7.964;2023-04-03T13:42:59;3.13;;;1.80;;
27580;SDS011;63557;52.302;7.964;2023-04-03T13:48:07;4.50;;;1.77;;
27580;SDS011;63557;52.302;7.964;2023-04-03T13:53:11;7.00;;;1.83;;
27580;SDS011;63557;52.302;7.964;2023-04-03T14:03:19;5.60;;;1.60;;
27580;SDS011;63557;52.302;7.964;2023-04-03T14:08:21;3.40;;;1.67;;
27580;SDS011;63557;52.302;7.964;2023-04-03T14:13:21;9.02;;;2.00;;
27580;SDS011;63557;52.302;7.964;2023-04-03T14:18:21;5.77;;;1.77;;
27580;SDS011;63557;52.302;7.964;2023-04-03T14:23:22;2.63;;;1.67;;
27580;SDS011;63557;52.302;7.964;2023-04-03T14:28:22;5.93;;;1.80;;
27580;SDS011;63557;52.302;7.964;2023-04-03T14:33:23;3.17;;;1.57;;
27580;SDS011;63557;52.302;7.964;2023-04-03T14:38:25;3.97;;;1.77;;
27580;SDS011;63557;52.302;7.964;2023-04-03T14:43:25;4.18;;;2.08;;
27580;SDS011;63557;52.302;7.964;2023-04-03T14:48:26;5.32;;;1.70;;
27580;SDS011;63557;52.302;7.964;2023-04-03T14:53:27;3.42;;;1.92;;
27580;SDS011;63557;52.302;7.964;2023-04-03T14:58:29;3.53;;;1.50;;
27580;SDS011;63557;52.302;7.964;2023-04-03T15:03:30;9.33;;;2.50;;
27580;SDS011;63557;52.302;7.964;2023-04-03T15:08:30;3.23;;;1.70;;
27580;SDS011;63557;52.302;7.964;2023-04-03T15:13:30;3.40;;;1.83;;
27580;SDS011;63557;52.302;7.964;2023-04-03T15:18:32;3.80;;;1.50;;
27580;SDS011;63557;52.302;7.964;2023-04-03T15:23:35;5.05;;;1.80;;
27580;SDS011;63557;52.302;7.964;2023-04-03T15:28:37;4.82;;;1.95;;
27580;SDS011;63557;52.302;7.964;2023-04-03T15:33:38;9.40;;;1.67;;
27580;SDS011;63557;52.302;7.964;2023-04-03T15:38:39;3.57;;;1.87;;
27580;SDS011;63557;52.302;7.964;2023-04-03T15:43:39;5.97;;;1.90;;
27580;SDS011;63557;52.302;7.964;2023-04-03T15:48:39;3.57;;;1.77;;
27580;SDS011;63557;52.302;7.964;2023-04-03T15:53:40;4.47;;;1.95;;
27580;SDS011;63557;52.302;7.964;2023-04-03T15:58:40;3.47;;;1.80;;
27580;SDS011;63557;52.302;7.964;2023-04-03T16:03:41;6.57;;;1.58;;
27580;SDS011;63557;52.302;7.964;2023-04-03T16:08:46;5.97;;;1.95;;
27580;SDS011;63557;52.302;7.964;2023-04-03T16:13:46;4.30;;;1.77;;
27580;SDS011;63557;52.302;7.964;2023-04-03T16:18:47;3.47;;;1.90;;
27580;SDS011;63557;52.302;7.964;2023-04-03T16:23:47;3.13;;;2.05;;
27580;SDS011;63557;52.302;7.964;2023-04-03T16:28:47;2.83;;;1.67;;
27580;SDS011;63557;52.302;7.964;2023-04-03T16:33:48;2.57;;;1.70;;
27580;SDS011;63557;52.302;7.964;2023-04-03T16:38:48;8.17;;;2.50;;
27580;SDS011;63557;52.302;7.964;2023-04-03T16:43:48;4.00;;;1.67;;
27580;SDS011;63557;52.302;7.964;2023-04-03T16:48:50;4.88;;;1.98;;
27580;SDS011;63557;52.302;7.964;2023-04-03T16:53:50;4.93;;;1.83;;
27580;SDS011;63557;52.302;7.964;2023-04-03T16:58:50;3.97;;;1.80;;
27580;SDS011;63557;52.302;7.964;2023-04-03T17:03:51;2.38;;;1.73;;
27580;SDS011;63557;52.302;7.964;2023-04-03T17:08:51;3.88;;;1.73;;
27580;SDS011;63557;52.302;7.964;2023-04-03T17:14:01;4.07;;;2.13;;
27580;SDS011;63557;52.302;7.964;2023-04-03T17:19:01;4.78;;;1.95;;
27580;SDS011;63557;52.302;7.964;2023-04-03T17:24:03;7.88;;;2.15;;
27580;SDS011;63557;52.302;7.964;2023-04-03T17:29:07;3.85;;;1.80;;
27580;SDS011;63557;52.302;7.964;2023-04-03T17:34:08;4.65;;;1.52;;
27580;SDS011;63557;52.302;7.964;2023-04-03T17:39:11;6.63;;;1.50;;
27580;SDS011;63557;52.302;7.964;2023-04-03T17:44:11;4.13;;;1.98;;
27580;SDS011;63557;52.302;7.964;2023-04-03T17:49:12;6.07;;;2.10;;
27580;SDS011;63557;52.302;7.964;2023-04-03T17:54:14;5.30;;;2.28;;
27580;SDS011;63557;52.302;7.964;2023-04-03T17:59:17;3.72;;;2.08;;
27580;SDS011;63557;52.302;7.964;2023-04-03T18:04:17;3.90;;;2.05;;
27580;SDS011;63557;52.302;7.964;2023-04-03T18:14:19;5.40;;;2.83;;
27580;SDS011;63557;52.302;7.964;2023-04-03T18:19:20;7.68;;;2.13;;
27580;SDS011;63557;52.302;7.964;2023-04-03T18:24:21;4.43;;;2.43;;
27580;SDS011;63557;52.302;7.964;2023-04-03T18:29:22;4.90;;;2.70;;
27580;SDS011;63557;52.302;7.964;2023-04-03T18:34:22;7.65;;;2.38;;
27580;SDS011;63557;52.302;7.964;2023-04-03T18:39:23;5.03;;;2.37;;
27580;SDS011;63557;52.302;7.964;2023-04-03T18:44:23;7.32;;;2.20;;
27580;SDS011;63557;52.302;7.964;2023-04-03T18:49:25;4.60;;;2.78;;
27580;SDS011;63557;52.302;7.964;2023-04-03T18:54:27;12.35;;;3.72;;
27580;SDS011;63557;52.302;7.964;2023-04-03T18:59:27;6.28;;;3.15;;
27580;SDS011;63557;52.302;7.964;2023-04-03T19:04:28;17.70;;;10.10;;
27580;SDS011;63557;52.302;7.964;2023-04-03T19:09:28;11.82;;;4.90;;
27580;SDS011;63557;52.302;7.964;2023-04-03T19:14:29;6.63;;;3.77;;
27580;SDS011;63557;52.302;7.964;2023-04-03T19:19:29;7.35;;;4.55;;
27580;SDS011;63557;52.302;7.964;2023-04-03T19:24:29;9.77;;;5.10;;
27580;SDS011;63557;52.302;7.964;2023-04-03T19:29:30;8.63;;;4.88;;
27580;SDS011;63557;52.302;7.964;2023-04-03T19:34:30;9.73;;;4.53;;
27580;SDS011;63557;52.302;7.964;2023-04-03T19:39:31;7.95;;;4.47;;
27580;SDS011;63557;52.302;7.964;2023-04-03T19:44:34;10.07;;;4.63;;
27580;SDS011;63557;52.302;7.964;2023-04-03T19:49:35;11.27;;;5.25;;
27580;SDS011;63557;52.302;7.964;2023-04-03T19:54:36;11.67;;;5.03;;
27580;SDS011;63557;52.302;7.964;2023-04-03T19:59:36;6.75;;;4.10;;
27580;SDS011;63557;52.302;7.964;2023-04-03T20:04:36;10.35;;;5.05;;
27580;SDS011;63557;52.302;7.964;2023-04-03T20:09:37;9.27;;;4.85;;
27580;SDS011;63557;52.302;7.964;2023-04-03T20:14:37;9.77;;;5.50;;
27580;SDS011;63557;52.302;7.964;2023-04-03T20:19:38;11.48;;;5.03;;
27580;SDS011;63557;52.302;7.964;2023-04-03T20:24:39;11.05;;;5.88;;
27580;SDS011;63557;52.302;7.964;2023-04-03T20:29:39;15.68;;;4.30;;
27580;SDS011;63557;52.302;7.964;2023-04-03T20:34:40;10.30;;;3.75;;
27580;SDS011;63557;52.302;7.964;2023-04-03T20:39:40;9.38;;;3.90;;
27580;SDS011;63557;52.302;7.964;2023-04-03T20:44:41;12.73;;;5.32;;
27580;SDS011;63557;52.302;7.964;2023-04-03T20:49:45;11.52;;;5.25;;
27580;SDS011;63557;52.302;7.964;2023-04-03T20:54:45;7.78;;;4.15;;
27580;SDS011;63557;52.302;7.964;2023-04-03T20:59:46;6.95;;;4.38;;
27580;SDS011;63557;52.302;7.964;2023-04-03T21:04:50;9.32;;;5.13;;
27580;SDS011;63557;52.302;7.964;2023-04-03T21:20:30;11.25;;;4.35;;
27580;SDS011;63557;52.302;7.964;2023-04-03T21:25:30;9.48;;;4.85;;
27580;SDS011;63557;52.302;7.964;2023-04-03T21:30:31;10.20;;;4.78;;
27580;SDS011;63557;52.302;7.964;2023-04-03T21:35:31;10.07;;;5.57;;
27580;SDS011;63557;52.302;7.964;2023-04-03T21:40:32;6.95;;;4.53;;
27580;SDS011;63557;52.302;7.964;2023-04-03T21:45:32;8.87;;;4.03;;
27580;SDS011;63557;52.302;7.964;2023-04-03T21:50:33;10.20;;;3.75;;
27580;SDS011;63557;52.302;7.964;2023-04-03T21:55:34;8.57;;;3.97;;
27580;SDS011;63557;52.302;7.964;2023-04-03T22:00:34;16.02;;;6.65;;
27580;SDS011;63557;52.302;7.964;2023-04-03T22:05:35;30.90;;;14.00;;
27580;SDS011;63557;52.302;7.964;2023-04-03T22:10:36;34.15;;;15.40;;
27580;SDS011;63557;52.302;7.964;2023-04-03T22:15:39;31.52;;;14.65;;
27580;SDS011;63557;52.302;7.964;2023-04-03T22:20:42;11.13;;;5.15;;
27580;SDS011;63557;52.302;7.964;2023-04-03T22:25:43;10.85;;;5.18;;
27580;SDS011;63557;52.302;7.964;2023-04-03T22:30:43;12.63;;;4.95;;
27580;SDS011;63557;52.302;7.964;2023-04-03T22:35:47;15.05;;;5.13;;
27580;SDS011;63557;52.302;7.964;2023-04-03T22:40:54;14.60;;;4.50;;
27580;SDS011;63557;52.302;7.964;2023-04-03T22:45:55;9.10;;;4.28;;
27580;SDS011;63557;52.302;7.964;2023-04-03T22:50:56;7.20;;;4.13;;
27580;SDS011;63557;52.302;7.964;2023-04-03T22:56:00;5.05;;;3.20;;
27580;SDS011;63557;52.302;7.964;2023-04-03T23:01:04;5.82;;;3.25;;
27580;SDS011;63557;52.302;7.964;2023-04-03T23:06:06;10.38;;;3.28;;
27580;SDS011;63557;52.302;7.964;2023-04-03T23:11:07;4.97;;;3.55;;
27580;SDS011;63557;52.302;7.964;2023-04-03T23:16:08;4.40;;;3.20;;
27580;SDS011;63557;52.302;7.964;2023-04-03T23:21:08;6.53;;;3.60;;
27580;SDS011;63557;52.302;7.964;2023-04-03T23:26:09;23.60;;;4.15;;
27580;SDS011;63557;52.302;7.964;2023-04-03T23:31:10;4.70;;;3.30;;
27580;SDS011;63557;52.302;7.964;2023-04-03T23:36:10;7.93;;;3.40;;
27580;SDS011;63557;52.302;7.964;2023-04-03T23:41:12;8.48;;;3.33;;
27580;SDS011;63557;52.302;7.964;2023-04-03T23:46:12;15.77;;;4.37;;
27580;SDS011;63557;52.302;7.964;2023-04-03T23:51:12;9.40;;;3.80;;
27580;SDS011;63557;52.302;7.964;2023-04-03T23:56:13;7.53;;;3.80;;
